sensor_id;sensor_type;location;lat;lon;timestamp;temperature;humidity
16491;DHT22;8356;51.214;3.270;2022-07-21T00:00:18;589.20;2432.00
16491;DHT22;8356;51.214;3.270;2022-07-21T00:02:44;589.10;2432.00
16491;DHT22;8356;51.214;3.270;2022-07-21T00:05:09;589.00;2432.00
16491;DHT22;8356;51.214;3.270;2022-07-21T00:07:35;589.00;2432.00
16491;DHT22;8356;51.214;3.270;2022-07-21T00:10:01;589.10;2432.00
16491;DHT22;8356;51.214;3.270;2022-07-21T00:12:27;589.00;2432.00
16491;DHT22;8356;51.214;3.270;2022-07-21T00:14:52;589.00;2432.00
16491;DHT22;8356;51.214;3.270;2022-07-21T00:17:18;589.00;2432.00
16491;DHT22;8356;51.214;3.270;2022-07-21T00:19:43;589.00;2432.00
16491;DHT22;8356;51.214;3.270;2022-07-21T00:22:09;588.90;2432.00
16491;DHT22;8356;51.214;3.270;2022-07-21T00:24:35;588.80;2432.00
16491;DHT22;8356;51.214;3.270;2022-07-21T00:27:00;588.80;2432.00
16491;DHT22;8356;51.214;3.270;2022-07-21T00:29:26;588.80;2432.00
16491;DHT22;8356;51.214;3.270;2022-07-21T00:31:51;564.10;2432.00
16491;DHT22;8356;51.214;3.270;2022-07-21T00:34:17;588.80;2432.00
16491;DHT22;8356;51.214;3.270;2022-07-21T00:36:43;588.80;2432.00
16491;DHT22;8356;51.214;3.270;2022-07-21T00:39:08;588.80;2432.00
16491;DHT22;8356;51.214;3.270;2022-07-21T00:41:34;564.10;2432.00
16491;DHT22;8356;51.214;3.270;2022-07-21T00:43:59;588.80;2432.00
16491;DHT22;8356;51.214;3.270;2022-07-21T00:46:25;564.00;2432.00
16491;DHT22;8356;51.214;3.270;2022-07-21T00:48:51;564.10;2432.00
16491;DHT22;8356;51.214;3.270;2022-07-21T00:51:16;564.10;2432.00
16491;DHT22;8356;51.214;3.270;2022-07-21T00:53:42;564.00;2432.00
16491;DHT22;8356;51.214;3.270;2022-07-21T00:56:09;564.00;2432.00
16491;DHT22;8356;51.214;3.270;2022-07-21T00:58:34;564.00;2432.00
16491;DHT22;8356;51.214;3.270;2022-07-21T01:01:00;564.00;2432.00
16491;DHT22;8356;51.214;3.270;2022-07-21T01:03:26;564.10;2432.00
16491;DHT22;8356;51.214;3.270;2022-07-21T01:05:51;564.00;2432.00
16491;DHT22;8356;51.214;3.270;2022-07-21T01:08:17;564.00;2432.00
16491;DHT22;8356;51.214;3.270;2022-07-21T01:10:44;564.00;2432.00
16491;DHT22;8356;51.214;3.270;2022-07-21T01:13:09;564.00;2432.00
16491;DHT22;8356;51.214;3.270;2022-07-21T01:15:36;564.00;2432.00
16491;DHT22;8356;51.214;3.270;2022-07-21T01:18:02;563.90;2432.00
16491;DHT22;8356;51.214;3.270;2022-07-21T01:20:32;563.90;2432.00
16491;DHT22;8356;51.214;3.270;2022-07-21T01:22:58;564.00;2432.00
16491;DHT22;8356;51.214;3.270;2022-07-21T01:25:24;563.90;2432.00
16491;DHT22;8356;51.214;3.270;2022-07-21T01:27:49;563.90;2432.00
16491;DHT22;8356;51.214;3.270;2022-07-21T01:30:16;563.80;2432.00
16491;DHT22;8356;51.214;3.270;2022-07-21T01:32:42;563.90;2432.00
16491;DHT22;8356;51.214;3.270;2022-07-21T01:35:10;563.80;2432.00
16491;DHT22;8356;51.214;3.270;2022-07-21T01:37:42;563.90;2432.00
16491;DHT22;8356;51.214;3.270;2022-07-21T01:40:08;563.90;2432.00
16491;DHT22;8356;51.214;3.270;2022-07-21T01:42:53;563.90;2432.00
16491;DHT22;8356;51.214;3.270;2022-07-21T01:45:20;563.90;2432.00
16491;DHT22;8356;51.214;3.270;2022-07-21T01:47:46;563.90;2432.00
16491;DHT22;8356;51.214;3.270;2022-07-21T01:50:12;563.90;2432.00
16491;DHT22;8356;51.214;3.270;2022-07-21T01:52:37;563.90;2432.00
16491;DHT22;8356;51.214;3.270;2022-07-21T01:55:03;563.90;2432.00
16491;DHT22;8356;51.214;3.270;2022-07-21T01:57:29;563.90;2432.00
16491;DHT22;8356;51.214;3.270;2022-07-21T01:59:55;563.90;2432.00
16491;DHT22;8356;51.214;3.270;2022-07-21T02:02:20;563.90;2432.00
16491;DHT22;8356;51.214;3.270;2022-07-21T02:04:48;563.90;2432.00
16491;DHT22;8356;51.214;3.270;2022-07-21T02:07:14;563.80;2432.00
16491;DHT22;8356;51.214;3.270;2022-07-21T02:09:39;563.80;2432.00
16491;DHT22;8356;51.214;3.270;2022-07-21T02:12:05;563.70;2432.00
16491;DHT22;8356;51.214;3.270;2022-07-21T02:14:31;563.70;2432.00
16491;DHT22;8356;51.214;3.270;2022-07-21T02:16:56;563.60;2432.00
16491;DHT22;8356;51.214;3.270;2022-07-21T02:19:22;563.50;2432.00
16491;DHT22;8356;51.214;3.270;2022-07-21T02:21:48;563.40;2432.00
16491;DHT22;8356;51.214;3.270;2022-07-21T02:24:13;563.40;2432.00
16491;DHT22;8356;51.214;3.270;2022-07-21T02:26:39;563.50;2432.00
16491;DHT22;8356;51.214;3.270;2022-07-21T02:29:04;563.50;2432.00
16491;DHT22;8356;51.214;3.270;2022-07-21T02:31:30;563.40;2432.00
16491;DHT22;8356;51.214;3.270;2022-07-21T02:33:56;563.30;2432.00
16491;DHT22;8356;51.214;3.270;2022-07-21T02:36:21;563.30;2432.00
16491;DHT22;8356;51.214;3.270;2022-07-21T02:38:47;563.20;2432.00
16491;DHT22;8356;51.214;3.270;2022-07-21T02:41:13;563.20;2432.00
16491;DHT22;8356;51.214;3.270;2022-07-21T02:43:38;563.20;2432.00
16491;DHT22;8356;51.214;3.270;2022-07-21T02:46:04;563.20;2432.00
16491;DHT22;8356;51.214;3.270;2022-07-21T02:48:29;538.40;2406.40
16491;DHT22;8356;51.214;3.270;2022-07-21T02:50:55;538.40;2406.40
16491;DHT22;8356;51.214;3.270;2022-07-21T02:53:21;538.30;2406.40
16491;DHT22;8356;51.214;3.270;2022-07-21T02:55:49;538.20;2406.40
16491;DHT22;8356;51.214;3.270;2022-07-21T02:58:26;538.30;2406.40
16491;DHT22;8356;51.214;3.270;2022-07-21T03:00:56;538.30;2406.40
16491;DHT22;8356;51.214;3.270;2022-07-21T03:03:24;538.40;2406.40
16491;DHT22;8356;51.214;3.270;2022-07-21T03:05:50;538.30;2406.40
16491;DHT22;8356;51.214;3.270;2022-07-21T03:08:17;538.40;2406.40
16491;DHT22;8356;51.214;3.270;2022-07-21T03:10:43;538.40;2406.40
16491;DHT22;8356;51.214;3.270;2022-07-21T03:13:09;538.30;2406.40
16491;DHT22;8356;51.214;3.270;2022-07-21T03:15:35;538.30;2406.40
16491;DHT22;8356;51.214;3.270;2022-07-21T03:18:01;538.40;2406.40
16491;DHT22;8356;51.214;3.270;2022-07-21T03:20:29;538.30;2406.40
16491;DHT22;8356;51.214;3.270;2022-07-21T03:22:55;538.30;2406.40
16491;DHT22;8356;51.214;3.270;2022-07-21T03:25:21;538.40;2406.40
16491;DHT22;8356;51.214;3.270;2022-07-21T03:27:47;538.40;2406.40
16491;DHT22;8356;51.214;3.270;2022-07-21T03:30:13;538.40;2406.40
16491;DHT22;8356;51.214;3.270;2022-07-21T03:32:40;538.40;2406.40
16491;DHT22;8356;51.214;3.270;2022-07-21T03:35:07;538.40;2406.40
16491;DHT22;8356;51.214;3.270;2022-07-21T03:37:39;538.50;2406.40
16491;DHT22;8356;51.214;3.270;2022-07-21T03:40:05;538.40;2406.40
16491;DHT22;8356;51.214;3.270;2022-07-21T03:42:31;538.30;2406.40
16491;DHT22;8356;51.214;3.270;2022-07-21T03:44:56;538.20;2406.40
16491;DHT22;8356;51.214;3.270;2022-07-21T03:47:22;538.30;2406.40
16491;DHT22;8356;51.214;3.270;2022-07-21T03:49:47;538.30;2406.40
16491;DHT22;8356;51.214;3.270;2022-07-21T03:52:13;538.40;2406.40
16491;DHT22;8356;51.214;3.270;2022-07-21T03:54:38;538.50;2406.40
16491;DHT22;8356;51.214;3.270;2022-07-21T03:57:04;538.50;2406.40
16491;DHT22;8356;51.214;3.270;2022-07-21T03:59:30;538.40;2406.40
16491;DHT22;8356;51.214;3.270;2022-07-21T04:01:56;538.50;2406.40
16491;DHT22;8356;51.214;3.270;2022-07-21T04:04:21;563.20;2432.00
16491;DHT22;8356;51.214;3.270;2022-07-21T04:06:47;563.20;2432.00
16491;DHT22;8356;51.214;3.270;2022-07-21T04:09:12;538.50;2406.40
16491;DHT22;8356;51.214;3.270;2022-07-21T04:11:38;538.50;2406.40
16491;DHT22;8356;51.214;3.270;2022-07-21T04:14:04;538.40;2406.40
16491;DHT22;8356;51.214;3.270;2022-07-21T04:16:29;538.30;2406.40
16491;DHT22;8356;51.214;3.270;2022-07-21T04:18:55;538.30;2406.40
16491;DHT22;8356;51.214;3.270;2022-07-21T04:21:20;538.30;2406.40
16491;DHT22;8356;51.214;3.270;2022-07-21T04:23:46;538.30;2406.40
16491;DHT22;8356;51.214;3.270;2022-07-21T04:26:11;538.30;2406.40
16491;DHT22;8356;51.214;3.270;2022-07-21T04:28:37;538.30;2406.40
16491;DHT22;8356;51.214;3.270;2022-07-21T04:31:03;538.40;2406.40
16491;DHT22;8356;51.214;3.270;2022-07-21T04:33:28;538.30;2406.40
16491;DHT22;8356;51.214;3.270;2022-07-21T04:35:54;538.20;2406.40
16491;DHT22;8356;51.214;3.270;2022-07-21T04:38:20;538.20;2406.40
16491;DHT22;8356;51.214;3.270;2022-07-21T04:40:45;538.30;2406.40
16491;DHT22;8356;51.214;3.270;2022-07-21T04:43:11;538.20;2406.40
16491;DHT22;8356;51.214;3.270;2022-07-21T04:45:36;538.20;2406.40
16491;DHT22;8356;51.214;3.270;2022-07-21T04:48:02;538.20;2406.40
16491;DHT22;8356;51.214;3.270;2022-07-21T04:50:29;537.80;2406.40
16491;DHT22;8356;51.214;3.270;2022-07-21T04:52:55;538.30;2406.40
16491;DHT22;8356;51.214;3.270;2022-07-21T04:55:21;538.30;2406.40
16491;DHT22;8356;51.214;3.270;2022-07-21T04:57:50;538.30;2406.40
16491;DHT22;8356;51.214;3.270;2022-07-21T05:00:18;538.30;2406.40
16491;DHT22;8356;51.214;3.270;2022-07-21T05:02:45;538.40;2406.40
16491;DHT22;8356;51.214;3.270;2022-07-21T05:05:11;538.40;2406.40
16491;DHT22;8356;51.214;3.270;2022-07-21T05:07:37;538.50;2406.40
16491;DHT22;8356;51.214;3.270;2022-07-21T05:10:07;538.40;2406.40
16491;DHT22;8356;51.214;3.270;2022-07-21T05:12:33;538.50;2406.40
16491;DHT22;8356;51.214;3.270;2022-07-21T05:14:59;538.40;2406.40
16491;DHT22;8356;51.214;3.270;2022-07-21T05:17:25;538.30;2406.40
16491;DHT22;8356;51.214;3.270;2022-07-21T05:19:50;538.30;2406.40
16491;DHT22;8356;51.214;3.270;2022-07-21T05:22:17;538.30;2406.40
16491;DHT22;8356;51.214;3.270;2022-07-21T05:24:43;538.20;2406.40
16491;DHT22;8356;51.214;3.270;2022-07-21T05:27:08;538.20;2406.40
16491;DHT22;8356;51.214;3.270;2022-07-21T05:29:34;538.10;2406.40
16491;DHT22;8356;51.214;3.270;2022-07-21T05:32:00;538.10;2406.40
16491;DHT22;8356;51.214;3.270;2022-07-21T05:34:25;538.10;2406.40
16491;DHT22;8356;51.214;3.270;2022-07-21T05:36:51;538.10;2406.40
16491;DHT22;8356;51.214;3.270;2022-07-21T05:39:18;538.00;2406.40
16491;DHT22;8356;51.214;3.270;2022-07-21T05:41:44;538.30;2406.40
16491;DHT22;8356;51.214;3.270;2022-07-21T05:44:10;538.10;2406.40
16491;DHT22;8356;51.214;3.270;2022-07-21T05:46:35;538.00;2406.40
16491;DHT22;8356;51.214;3.270;2022-07-21T05:49:01;538.10;2406.40
16491;DHT22;8356;51.214;3.270;2022-07-21T05:51:26;538.10;2406.40
16491;DHT22;8356;51.214;3.270;2022-07-21T05:53:52;538.10;2406.40
16491;DHT22;8356;51.214;3.270;2022-07-21T05:56:18;538.10;2406.40
16491;DHT22;8356;51.214;3.270;2022-07-21T05:58:43;537.90;2406.40
16491;DHT22;8356;51.214;3.270;2022-07-21T06:01:09;538.00;2406.40
16491;DHT22;8356;51.214;3.270;2022-07-21T06:03:43;537.90;2406.40
16491;DHT22;8356;51.214;3.270;2022-07-21T06:06:10;537.90;2406.40
16491;DHT22;8356;51.214;3.270;2022-07-21T06:08:40;537.90;2406.40
16491;DHT22;8356;51.214;3.270;2022-07-21T06:11:07;537.90;2406.40
16491;DHT22;8356;51.214;3.270;2022-07-21T06:13:33;537.80;2406.40
16491;DHT22;8356;51.214;3.270;2022-07-21T06:15:58;537.80;2406.40
16491;DHT22;8356;51.214;3.270;2022-07-21T06:18:24;537.80;2406.40
16491;DHT22;8356;51.214;3.270;2022-07-21T06:20:49;537.90;2406.40
16491;DHT22;8356;51.214;3.270;2022-07-21T06:23:15;537.80;2406.40
16491;DHT22;8356;51.214;3.270;2022-07-21T06:25:41;537.80;2406.40
16491;DHT22;8356;51.214;3.270;2022-07-21T06:28:07;537.70;2406.40
16491;DHT22;8356;51.214;3.270;2022-07-21T06:30:33;537.70;2406.40
16491;DHT22;8356;51.214;3.270;2022-07-21T06:32:58;537.70;2406.40
16491;DHT22;8356;51.214;3.270;2022-07-21T06:35:24;537.60;2406.40
16491;DHT22;8356;51.214;3.270;2022-07-21T06:37:50;537.60;2406.40
16491;DHT22;8356;51.214;3.270;2022-07-21T06:40:16;537.60;2406.40
16491;DHT22;8356;51.214;3.270;2022-07-21T06:42:41;512.90;2380.80
16491;DHT22;8356;51.214;3.270;2022-07-21T06:45:07;537.60;2406.40
16491;DHT22;8356;51.214;3.270;2022-07-21T06:47:33;537.70;2406.40
16491;DHT22;8356;51.214;3.270;2022-07-21T06:49:59;537.70;2406.40
16491;DHT22;8356;51.214;3.270;2022-07-21T06:52:28;537.60;2406.40
16491;DHT22;8356;51.214;3.270;2022-07-21T06:54:54;512.90;2380.80
16491;DHT22;8356;51.214;3.270;2022-07-21T06:57:20;512.90;2380.80
16491;DHT22;8356;51.214;3.270;2022-07-21T06:59:46;512.80;2380.80
16491;DHT22;8356;51.214;3.270;2022-07-21T07:02:11;512.80;2380.80
16491;DHT22;8356;51.214;3.270;2022-07-21T07:04:37;512.80;2380.80
16491;DHT22;8356;51.214;3.270;2022-07-21T07:07:03;512.80;2380.80
16491;DHT22;8356;51.214;3.270;2022-07-21T07:09:28;512.80;2380.80
16491;DHT22;8356;51.214;3.270;2022-07-21T07:11:54;512.80;2380.80
16491;DHT22;8356;51.214;3.270;2022-07-21T07:14:28;512.80;2380.80
16491;DHT22;8356;51.214;3.270;2022-07-21T07:16:54;512.70;2380.80
16491;DHT22;8356;51.214;3.270;2022-07-21T07:19:19;512.80;2380.80
16491;DHT22;8356;51.214;3.270;2022-07-21T07:21:45;512.80;2380.80
16491;DHT22;8356;51.214;3.270;2022-07-21T07:24:10;512.70;2380.80
16491;DHT22;8356;51.214;3.270;2022-07-21T07:26:36;512.70;2380.80
16491;DHT22;8356;51.214;3.270;2022-07-21T07:29:02;512.80;2380.80
16491;DHT22;8356;51.214;3.270;2022-07-21T07:31:28;512.70;2380.80
16491;DHT22;8356;51.214;3.270;2022-07-21T07:33:53;512.80;2380.80
16491;DHT22;8356;51.214;3.270;2022-07-21T07:36:25;512.80;2380.80
16491;DHT22;8356;51.214;3.270;2022-07-21T07:38:52;512.60;2380.80
16491;DHT22;8356;51.214;3.270;2022-07-21T07:41:19;512.50;2380.80
16491;DHT22;8356;51.214;3.270;2022-07-21T07:43:44;512.50;2380.80
16491;DHT22;8356;51.214;3.270;2022-07-21T07:46:10;512.50;2380.80
16491;DHT22;8356;51.214;3.270;2022-07-21T07:48:38;512.50;2380.80
16491;DHT22;8356;51.214;3.270;2022-07-21T07:51:05;512.50;2380.80
16491;DHT22;8356;51.214;3.270;2022-07-21T07:53:32;512.60;2380.80
16491;DHT22;8356;51.214;3.270;2022-07-21T07:55:58;512.70;2380.80
16491;DHT22;8356;51.214;3.270;2022-07-21T07:58:24;512.70;2380.80
16491;DHT22;8356;51.214;3.270;2022-07-21T08:00:49;512.70;2380.80
16491;DHT22;8356;51.214;3.270;2022-07-21T08:03:15;512.60;2380.80
16491;DHT22;8356;51.214;3.270;2022-07-21T08:05:41;512.70;2380.80
16491;DHT22;8356;51.214;3.270;2022-07-21T08:08:06;512.70;2380.80
16491;DHT22;8356;51.214;3.270;2022-07-21T08:10:32;512.70;2380.80
16491;DHT22;8356;51.214;3.270;2022-07-21T08:12:58;512.80;2380.80
16491;DHT22;8356;51.214;3.270;2022-07-21T08:15:24;512.60;2380.80
16491;DHT22;8356;51.214;3.270;2022-07-21T08:17:50;512.60;2380.80
16491;DHT22;8356;51.214;3.270;2022-07-21T08:20:15;512.60;2380.80
16491;DHT22;8356;51.214;3.270;2022-07-21T08:22:41;512.60;2380.80
16491;DHT22;8356;51.214;3.270;2022-07-21T08:25:07;512.50;2380.80
16491;DHT22;8356;51.214;3.270;2022-07-21T08:27:32;512.50;2380.80
16491;DHT22;8356;51.214;3.270;2022-07-21T08:29:58;512.50;2380.80
16491;DHT22;8356;51.214;3.270;2022-07-21T08:32:24;512.50;2380.80
16491;DHT22;8356;51.214;3.270;2022-07-21T08:34:50;512.50;2380.80
16491;DHT22;8356;51.214;3.270;2022-07-21T08:37:17;512.60;2380.80
16491;DHT22;8356;51.214;3.270;2022-07-21T08:39:44;512.80;2380.80
16491;DHT22;8356;51.214;3.270;2022-07-21T08:42:10;512.80;2380.80
16491;DHT22;8356;51.214;3.270;2022-07-21T08:44:37;512.80;2380.80
16491;DHT22;8356;51.214;3.270;2022-07-21T08:47:04;512.70;2380.80
16491;DHT22;8356;51.214;3.270;2022-07-21T08:49:31;512.20;2380.80
16491;DHT22;8356;51.214;3.270;2022-07-21T08:51:58;512.70;2380.80
16491;DHT22;8356;51.214;3.270;2022-07-21T08:54:24;512.70;2380.80
16491;DHT22;8356;51.214;3.270;2022-07-21T08:56:50;512.70;2380.80
16491;DHT22;8356;51.214;3.270;2022-07-21T08:59:15;512.80;2380.80
16491;DHT22;8356;51.214;3.270;2022-07-21T09:01:41;537.60;2406.40
16491;DHT22;8356;51.214;3.270;2022-07-21T09:04:30;537.70;2406.40
16491;DHT22;8356;51.214;3.270;2022-07-21T09:07:06;537.70;2406.40
16491;DHT22;8356;51.214;3.270;2022-07-21T09:09:34;537.70;2406.40
16491;DHT22;8356;51.214;3.270;2022-07-21T09:12:01;537.80;2406.40
16491;DHT22;8356;51.214;3.270;2022-07-21T09:14:30;537.70;2406.40
16491;DHT22;8356;51.214;3.270;2022-07-21T09:17:01;537.80;2406.40
16491;DHT22;8356;51.214;3.270;2022-07-21T09:19:38;537.80;2406.40
16491;DHT22;8356;51.214;3.270;2022-07-21T09:22:06;537.90;2406.40
16491;DHT22;8356;51.214;3.270;2022-07-21T09:24:36;537.80;2406.40
16491;DHT22;8356;51.214;3.270;2022-07-21T09:27:14;537.70;2406.40
16491;DHT22;8356;51.214;3.270;2022-07-21T09:29:51;537.60;2406.40
16491;DHT22;8356;51.214;3.270;2022-07-21T09:32:28;537.60;2406.40
16491;DHT22;8356;51.214;3.270;2022-07-21T09:35:16;512.90;2380.80
16491;DHT22;8356;51.214;3.270;2022-07-21T09:37:42;537.60;2406.40
16491;DHT22;8356;51.214;3.270;2022-07-21T09:40:11;537.70;2406.40
16491;DHT22;8356;51.214;3.270;2022-07-21T09:42:42;537.70;2406.40
16491;DHT22;8356;51.214;3.270;2022-07-21T09:45:10;537.70;2406.40
16491;DHT22;8356;51.214;3.270;2022-07-21T09:47:38;537.90;2406.40
16491;DHT22;8356;51.214;3.270;2022-07-21T09:50:06;538.00;2406.40
16491;DHT22;8356;51.214;3.270;2022-07-21T09:52:36;538.00;2406.40
16491;DHT22;8356;51.214;3.270;2022-07-21T09:55:17;538.10;2406.40
16491;DHT22;8356;51.214;3.270;2022-07-21T09:57:44;538.10;2406.40
16491;DHT22;8356;51.214;3.270;2022-07-21T10:00:13;538.10;2406.40
16491;DHT22;8356;51.214;3.270;2022-07-21T10:02:39;538.10;2406.40
16491;DHT22;8356;51.214;3.270;2022-07-21T10:07:47;538.00;2406.40
16491;DHT22;8356;51.214;3.270;2022-07-21T10:10:13;538.00;2406.40
16491;DHT22;8356;51.214;3.270;2022-07-21T10:12:39;537.90;2406.40
16491;DHT22;8356;51.214;3.270;2022-07-21T10:15:05;537.90;2406.40
16491;DHT22;8356;51.214;3.270;2022-07-21T10:17:31;537.90;2406.40
16491;DHT22;8356;51.214;3.270;2022-07-21T10:20:21;538.10;2406.40
16491;DHT22;8356;51.214;3.270;2022-07-21T10:25:24;538.00;2406.40
16491;DHT22;8356;51.214;3.270;2022-07-21T10:30:39;538.00;2406.40
16491;DHT22;8356;51.214;3.270;2022-07-21T10:33:05;538.00;2406.40
16491;DHT22;8356;51.214;3.270;2022-07-21T10:35:31;538.00;2406.40
16491;DHT22;8356;51.214;3.270;2022-07-21T10:37:58;538.00;2406.40
16491;DHT22;8356;51.214;3.270;2022-07-21T10:48:08;538.00;2406.40
16491;DHT22;8356;51.214;3.270;2022-07-21T10:50:34;538.00;2406.40
16491;DHT22;8356;51.214;3.270;2022-07-21T10:53:01;538.00;2406.40
16491;DHT22;8356;51.214;3.270;2022-07-21T10:55:35;537.90;2406.40
16491;DHT22;8356;51.214;3.270;2022-07-21T11:00:49;537.90;2406.40
16491;DHT22;8356;51.214;3.270;2022-07-21T11:03:27;537.90;2406.40
16491;DHT22;8356;51.214;3.270;2022-07-21T11:08:39;537.80;2406.40
16491;DHT22;8356;51.214;3.270;2022-07-21T11:11:11;537.90;2406.40
16491;DHT22;8356;51.214;3.270;2022-07-21T11:19:42;538.00;2406.40
16491;DHT22;8356;51.214;3.270;2022-07-21T11:22:19;538.00;2406.40
16491;DHT22;8356;51.214;3.270;2022-07-21T11:27:26;538.10;2406.40
16491;DHT22;8356;51.214;3.270;2022-07-21T11:29:55;538.00;2406.40
16491;DHT22;8356;51.214;3.270;2022-07-21T11:32:22;538.00;2406.40
16491;DHT22;8356;51.214;3.270;2022-07-21T11:34:59;538.00;2406.40
16491;DHT22;8356;51.214;3.270;2022-07-21T11:37:35;538.20;2406.40
16491;DHT22;8356;51.214;3.270;2022-07-21T11:40:06;538.30;2406.40
16491;DHT22;8356;51.214;3.270;2022-07-21T11:42:33;538.30;2406.40
16491;DHT22;8356;51.214;3.270;2022-07-21T11:44:59;538.20;2406.40
16491;DHT22;8356;51.214;3.270;2022-07-21T11:47:25;538.10;2406.40
16491;DHT22;8356;51.214;3.270;2022-07-21T11:49:53;538.10;2406.40
16491;DHT22;8356;51.214;3.270;2022-07-21T11:52:19;538.20;2406.40
16491;DHT22;8356;51.214;3.270;2022-07-21T11:54:51;538.20;2406.40
16491;DHT22;8356;51.214;3.270;2022-07-21T11:57:19;538.20;2406.40
16491;DHT22;8356;51.214;3.270;2022-07-21T11:59:46;538.20;2406.40
16491;DHT22;8356;51.214;3.270;2022-07-21T12:02:18;538.20;2406.40
16491;DHT22;8356;51.214;3.270;2022-07-21T12:04:47;538.30;2406.40
16491;DHT22;8356;51.214;3.270;2022-07-21T12:09:47;538.20;2406.40
16491;DHT22;8356;51.214;3.270;2022-07-21T12:12:13;538.20;2406.40
16491;DHT22;8356;51.214;3.270;2022-07-21T12:14:49;538.30;2406.40
16491;DHT22;8356;51.214;3.270;2022-07-21T12:17:36;538.30;2406.40
16491;DHT22;8356;51.214;3.270;2022-07-21T12:20:04;538.50;2406.40
16491;DHT22;8356;51.214;3.270;2022-07-21T12:22:38;538.30;2406.40
16491;DHT22;8356;51.214;3.270;2022-07-21T12:25:06;538.30;2406.40
16491;DHT22;8356;51.214;3.270;2022-07-21T12:27:38;538.30;2406.40
16491;DHT22;8356;51.214;3.270;2022-07-21T12:30:06;538.30;2406.40
16491;DHT22;8356;51.214;3.270;2022-07-21T12:33:08;538.10;2406.40
16491;DHT22;8356;51.214;3.270;2022-07-21T12:35:39;538.10;2406.40
16491;DHT22;8356;51.214;3.270;2022-07-21T12:38:12;538.10;2406.40
16491;DHT22;8356;51.214;3.270;2022-07-21T12:40:56;538.20;2406.40
16491;DHT22;8356;51.214;3.270;2022-07-21T12:43:24;538.30;2406.40
16491;DHT22;8356;51.214;3.270;2022-07-21T12:45:56;538.20;2406.40
16491;DHT22;8356;51.214;3.270;2022-07-21T12:48:33;538.20;2406.40
16491;DHT22;8356;51.214;3.270;2022-07-21T12:51:20;538.20;2406.40
16491;DHT22;8356;51.214;3.270;2022-07-21T12:53:51;538.20;2406.40
16491;DHT22;8356;51.214;3.270;2022-07-21T12:56:23;538.10;2406.40
16491;DHT22;8356;51.214;3.270;2022-07-21T12:58:50;538.10;2406.40
16491;DHT22;8356;51.214;3.270;2022-07-21T13:01:17;512.90;2380.80
16491;DHT22;8356;51.214;3.270;2022-07-21T13:03:44;538.00;2406.40
16491;DHT22;8356;51.214;3.270;2022-07-21T13:06:11;537.90;2406.40
16491;DHT22;8356;51.214;3.270;2022-07-21T13:08:39;537.90;2406.40
16491;DHT22;8356;51.214;3.270;2022-07-21T13:11:06;538.30;2406.40
16491;DHT22;8356;51.214;3.270;2022-07-21T13:13:32;538.00;2406.40
16491;DHT22;8356;51.214;3.270;2022-07-21T13:15:58;538.10;2406.40
16491;DHT22;8356;51.214;3.270;2022-07-21T13:18:24;538.10;2406.40
16491;DHT22;8356;51.214;3.270;2022-07-21T13:20:51;538.10;2406.40
16491;DHT22;8356;51.214;3.270;2022-07-21T13:23:18;538.20;2406.40
16491;DHT22;8356;51.214;3.270;2022-07-21T13:25:44;538.10;2406.40
16491;DHT22;8356;51.214;3.270;2022-07-21T13:28:09;538.10;2406.40
16491;DHT22;8356;51.214;3.270;2022-07-21T13:30:35;538.00;2406.40
16491;DHT22;8356;51.214;3.270;2022-07-21T13:33:01;538.00;2406.40
16491;DHT22;8356;51.214;3.270;2022-07-21T13:35:27;538.10;2406.40
16491;DHT22;8356;51.214;3.270;2022-07-21T13:37:56;538.10;2406.40
16491;DHT22;8356;51.214;3.270;2022-07-21T13:40:22;538.20;2406.40
16491;DHT22;8356;51.214;3.270;2022-07-21T13:42:48;537.80;2406.40
16491;DHT22;8356;51.214;3.270;2022-07-21T13:45:14;538.30;2406.40
16491;DHT22;8356;51.214;3.270;2022-07-21T13:47:41;538.30;2406.40
16491;DHT22;8356;51.214;3.270;2022-07-21T13:50:07;538.30;2406.40
16491;DHT22;8356;51.214;3.270;2022-07-21T13:52:33;538.30;2406.40
16491;DHT22;8356;51.214;3.270;2022-07-21T13:55:00;538.30;2406.40
16491;DHT22;8356;51.214;3.270;2022-07-21T13:57:25;538.30;2406.40
16491;DHT22;8356;51.214;3.270;2022-07-21T13:59:51;538.30;2406.40
16491;DHT22;8356;51.214;3.270;2022-07-21T14:02:17;538.20;2406.40
16491;DHT22;8356;51.214;3.270;2022-07-21T14:04:43;538.10;2406.40
16491;DHT22;8356;51.214;3.270;2022-07-21T14:07:08;538.10;2406.40
16491;DHT22;8356;51.214;3.270;2022-07-21T14:09:36;538.20;2406.40
16491;DHT22;8356;51.214;3.270;2022-07-21T14:12:02;538.30;2406.40
16491;DHT22;8356;51.214;3.270;2022-07-21T14:14:27;538.30;2406.40
16491;DHT22;8356;51.214;3.270;2022-07-21T14:16:53;538.40;2406.40
16491;DHT22;8356;51.214;3.270;2022-07-21T14:19:20;538.50;2406.40
16491;DHT22;8356;51.214;3.270;2022-07-21T14:21:45;538.50;2406.40
16491;DHT22;8356;51.214;3.270;2022-07-21T14:24:11;538.50;2406.40
16491;DHT22;8356;51.214;3.270;2022-07-21T14:26:55;563.20;2432.00
16491;DHT22;8356;51.214;3.270;2022-07-21T14:29:21;563.40;2432.00
16491;DHT22;8356;51.214;3.270;2022-07-21T14:31:47;563.60;2432.00
16491;DHT22;8356;51.214;3.270;2022-07-21T14:34:14;563.70;2432.00
16491;DHT22;8356;51.214;3.270;2022-07-21T14:36:40;563.30;2432.00
16491;DHT22;8356;51.214;3.270;2022-07-21T14:39:06;563.80;2432.00
16491;DHT22;8356;51.214;3.270;2022-07-21T14:41:32;563.70;2432.00
16491;DHT22;8356;51.214;3.270;2022-07-21T14:43:58;563.70;2432.00
16491;DHT22;8356;51.214;3.270;2022-07-21T14:46:23;563.80;2432.00
16491;DHT22;8356;51.214;3.270;2022-07-21T14:48:49;563.70;2432.00
16491;DHT22;8356;51.214;3.270;2022-07-21T14:51:15;563.70;2432.00
16491;DHT22;8356;51.214;3.270;2022-07-21T14:53:40;563.80;2432.00
16491;DHT22;8356;51.214;3.270;2022-07-21T14:56:06;563.80;2432.00
16491;DHT22;8356;51.214;3.270;2022-07-21T14:58:32;563.80;2432.00
16491;DHT22;8356;51.214;3.270;2022-07-21T15:00:58;563.90;2432.00
16491;DHT22;8356;51.214;3.270;2022-07-21T15:03:23;563.90;2432.00
16491;DHT22;8356;51.214;3.270;2022-07-21T15:05:50;563.80;2432.00
16491;DHT22;8356;51.214;3.270;2022-07-21T15:08:16;563.70;2432.00
16491;DHT22;8356;51.214;3.270;2022-07-21T15:10:42;563.80;2432.00
16491;DHT22;8356;51.214;3.270;2022-07-21T15:13:08;563.80;2432.00
16491;DHT22;8356;51.214;3.270;2022-07-21T15:15:34;563.80;2432.00
16491;DHT22;8356;51.214;3.270;2022-07-21T15:18:02;563.70;2432.00
16491;DHT22;8356;51.214;3.270;2022-07-21T15:20:28;563.50;2432.00
16491;DHT22;8356;51.214;3.270;2022-07-21T15:22:54;563.30;2432.00
16491;DHT22;8356;51.214;3.270;2022-07-21T15:25:19;563.30;2432.00
16491;DHT22;8356;51.214;3.270;2022-07-21T15:27:45;563.40;2432.00
16491;DHT22;8356;51.214;3.270;2022-07-21T15:30:13;563.50;2432.00
16491;DHT22;8356;51.214;3.270;2022-07-21T15:32:39;538.10;2406.40
16491;DHT22;8356;51.214;3.270;2022-07-21T15:35:06;563.40;2432.00